Ayr, North Dakota
Current Conditions -  °F | °C
As of 1:55 AM on Thursday 29 Jan 2015 (Local Time) from KBAC Reporting Station
Light Snow Light Snow  
Wind Chill: 11°   Ceiling: 1300
Heat Index: 25°   Visibility: 10mi
Dew Point: 25°   Wind: 20mph
Humidity: 100%   Direction: 340°NNW
Pressure: 30.18"   Gusts: 28mph
Location:  47.04°N, 97.49°W
Report Text: KBAC 290755Z AUTO 34017G24KT 10SM -SN OVC013 M04/M04 A3018 RMK AO2 P0002
Loading
Personal Weather Stations






























Interactive Weather Map New forecast layout! Learn more

10-Day Weather Forecast

Advertisements
Track Severe Weather on mobile